Time;durP1;ratioP1;P1;durP2;ratioP2;P2;SDS_P1;SDS_P2;PMS_P1;PMS_P2;Temp;Humidity;BMP_temperature;BMP_pressure;BME280_temperature;BME280_humidity;BME280_pressure;Samples;Min_cycle;Max_cycle;Signal;HPM_P1;HPM_P2
2023/02/27 00:00:13;;;;;;;;;;;;;;;-144.99;85.97;52578.53;5053196;28;19932;-66
2023/02/27 00:02:40;;;;;;;;;;;;;;;-144.99;86.47;52562.25;5058031;28;19928;-66
2023/02/27 00:05:07;;;;;;;;;;;;;;;-144.99;86.26;52603.00;5052573;28;19962;-66
2023/02/27 00:07:33;;;;;;;;;;;;;;;-144.99;86.37;52570.38;5051482;28;19929;-66
2023/02/27 00:10:00;;;;;;;;;;;;;;;-144.99;86.51;52603.00;5050397;28;19960;-66
2023/02/27 00:12:26;;;;;;;;;;;;;;;-144.99;86.85;52594.84;5059950;28;20509;-66
2023/02/27 00:14:53;;;;;;;;;;;;;;;-144.99;86.93;52533.69;5053782;28;19928;-65
2023/02/27 00:17:24;;;;;;;;;;;;;;;-144.99;87.18;52547.97;5052056;28;19994;-66
2023/02/27 00:19:51;;;;;;;;;;;;;;;-144.99;87.30;52617.28;5050953;28;19987;-70
2023/02/27 00:22:17;;;;;;;;;;;;;;;-144.99;87.28;52621.34;5050816;28;19928;-70
2023/02/27 00:24:44;;;;;;;;;;;;;;;-144.99;86.94;52594.84;5051085;28;19959;-70
2023/02/27 00:27:10;;;;;;;;;;;;;;;-144.99;86.72;52558.16;5055384;28;20455;-69
2023/02/27 00:29:37;;;;;;;;;;;;;;;-144.99;87.74;52600.97;5053928;28;19929;-70
2023/02/27 00:32:03;;;;;;;;;;;;;;;-144.99;88.75;52586.69;5049248;28;19928;-70
2023/02/27 00:34:31;;;;;;;;;;;;;;;-144.99;88.86;52562.25;5048734;28;19924;-69
2023/02/27 00:36:58;;;;;;;;;;;;;;;-144.99;87.61;52545.94;5060856;28;19936;-70
2023/02/27 00:39:25;;;;;;;;;;;;;;;-144.99;85.11;52550.00;5058907;28;19933;-71
2023/02/27 00:41:51;;;;;;;;;;;;;;;-144.99;85.77;52590.78;5061749;28;19935;-71
2023/02/27 00:44:18;;;;;;;;;;;;;;;-144.99;86.25;52574.47;5065956;28;19928;-71
2023/02/27 00:46:44;;;;;;;;;;;;;;;-144.99;86.40;52562.25;5071462;28;19924;-71
2023/02/27 00:49:11;;;;;;;;;;;;;;;-144.99;86.37;52554.09;5077199;28;19958;-71
2023/02/27 00:51:39;;;;;;;;;;;;;;;-144.99;85.57;52586.69;5088511;28;19912;-71
2023/02/27 00:54:05;;;;;;;;;;;;;;;-144.99;86.54;52533.69;5081205;28;19931;-71
2023/02/27 00:56:33;;;;;;;;;;;;;;;-144.99;86.57;52611.16;5087138;28;19994;-71
2023/02/27 00:59:00;;;;;;;;;;;;;;;-144.99;86.41;52590.78;5062637;28;19932;-71
2023/02/27 01:01:26;;;;;;;;;;;;;;;-144.99;86.71;52598.94;5086328;28;19913;-68
2023/02/27 01:03:53;;;;;;;;;;;;;;;-144.99;86.86;52578.53;5086751;28;19928;-67
2023/02/27 01:06:19;;;;;;;;;;;;;;;-144.99;86.63;52564.28;5078074;28;19955;-71
2023/02/27 01:08:47;;;;;;;;;;;;;;;-144.99;86.83;52525.56;5076402;28;19933;-69
2023/02/27 01:11:14;;;;;;;;;;;;;;;-144.99;86.83;52574.47;5051943;28;19925;-69
2023/02/27 01:13:40;;;;;;;;;;;;;;;-144.99;86.88;52541.84;5058601;28;19987;-70
2023/02/27 01:16:09;;;;;;;;;;;;;;;-144.99;86.63;52596.88;5061177;28;19929;-69
2023/02/27 01:18:35;;;;;;;;;;;;;;;-144.99;86.44;52566.31;5052273;28;19932;-70
2023/02/27 01:21:02;;;;;;;;;;;;;;;-144.99;85.01;52586.69;5053736;28;19976;-69
2023/02/27 01:23:28;;;;;;;;;;;;;;;-144.99;84.45;52541.84;5055174;28;20448;-70
2023/02/27 01:25:56;;;;;;;;;;;;;;;-144.99;85.15;52564.28;5065687;28;20416;-70
2023/02/27 01:28:23;;;;;;;;;;;;;;;-144.99;84.38;52566.31;5052377;28;19932;-70
2023/02/27 01:30:49;;;;;;;;;;;;;;;-144.99;84.52;52572.44;5064460;28;20142;-69
2023/02/27 01:33:16;;;;;;;;;;;;;;;-144.99;84.58;52574.47;5063867;28;20385;-68
2023/02/27 01:35:42;;;;;;;;;;;;;;;-144.99;84.72;52603.00;4709662;28;9999851;-69
2023/02/27 01:38:09;;;;;;;;;;;;;;;-144.99;84.69;52594.84;5055206;28;19940;-69
2023/02/27 01:40:36;;;;;;;;;;;;;;;-144.99;84.63;52598.94;5061972;28;20026;-70
2023/02/27 01:43:04;;;;;;;;;;;;;;;-144.99;84.41;52556.13;5056410;28;19925;-70
2023/02/27 01:45:32;;;;;;;;;;;;;;;-144.99;84.45;52562.25;5072179;28;19936;-70
2023/02/27 01:48:02;;;;;;;;;;;;;;;-144.99;84.47;52562.25;5084244;28;19925;-70
2023/02/27 01:50:29;;;;;;;;;;;;;;;-144.99;84.68;52537.78;5075083;28;19924;-70
2023/02/27 01:52:57;;;;;;;;;;;;;;;-144.99;84.70;52562.25;5071049;28;19934;-70
2023/02/27 01:55:26;;;;;;;;;;;;;;;-144.99;84.89;52590.78;5067623;28;19930;-71
2023/02/27 01:57:53;;;;;;;;;;;;;;;-144.99;84.59;52541.84;5074332;28;19934;-70
2023/02/27 02:00:21;;;;;;;;;;;;;;;-144.99;84.86;52558.16;5072649;28;19975;-70
2023/02/27 02:02:51;;;;;;;;;;;;;;;-144.99;84.91;52590.78;5064399;28;19947;-71
2023/02/27 02:05:19;;;;;;;;;;;;;;;-144.99;85.13;52609.13;5069291;28;20456;-70
2023/02/27 02:07:46;;;;;;;;;;;;;;;-144.99;85.61;52550.00;5063370;28;19974;-70
2023/02/27 02:10:14;;;;;;;;;;;;;;;-144.99;85.69;52588.75;5069668;28;19924;-71
2023/02/27 02:12:41;;;;;;;;;;;;;;;-144.99;85.54;52562.25;5068074;28;20436;-71
2023/02/27 02:15:08;;;;;;;;;;;;;;;-144.99;85.30;52574.47;5060085;28;19924;-70
2023/02/27 02:17:43;;;;;;;;;;;;;;;-144.99;85.18;52607.09;5060527;28;19928;-66
2023/02/27 02:20:44;;;;;;;;;;;;;;;-144.99;85.65;52562.25;5072420;28;19924;-65
2023/02/27 02:23:34;;;;;;;;;;;;;;;-144.99;85.72;52570.38;5027350;28;20404;-65
2023/02/27 02:26:22;;;;;;;;;;;;;;;-144.99;87.04;52550.00;5057692;22;19936;-66
2023/02/27 02:29:10;;;;;;;;;;;;;;;-144.99;87.63;52594.84;5062687;28;19932;-66
2023/02/27 02:31:56;;;;;;;;;;;;;;;-144.99;87.67;52590.78;5065340;28;20347;-66
2023/02/27 02:34:42;;;;;;;;;;;;;;;-144.99;87.97;52578.53;5059118;28;20316;-66
2023/02/27 02:37:23;;;;;;;;;;;;;;;-144.99;88.37;52590.78;5046804;28;20653;-70
2023/02/27 02:40:06;;;;;;;;;;;;;;;-144.99;88.58;52623.38;5045976;28;19986;-67
2023/02/27 02:42:36;;;;;;;;;;;;;;;-144.99;88.41;52590.78;5045192;28;20072;-67
2023/02/27 02:45:09;;;;;;;;;;;;;;;-144.99;87.32;52547.97;5046974;28;20018;-67
2023/02/27 02:47:42;;;;;;;;;;;;;;;-144.99;87.18;52554.09;5048238;28;19952;-69
2023/02/27 02:50:12;;;;;;;;;;;;;;;-144.99;86.53;52598.94;5043029;28;19987;-67
2023/02/27 02:52:43;;;;;;;;;;;;;;;-144.99;86.21;52541.84;5045558;28;19928;-69
2023/02/27 02:55:16;;;;;;;;;;;;;;;-144.99;86.19;52558.16;5047019;28;20301;-68
2023/02/27 02:57:46;;;;;;;;;;;;;;;-144.99;85.99;52578.53;5046531;28;19964;-68
2023/02/27 03:00:15;;;;;;;;;;;;;;;-144.99;86.02;52558.16;5044688;28;19978;-68
2023/02/27 03:02:44;;;;;;;;;;;;;;;-144.99;86.00;52550.00;5040333;28;19979;-67
2023/02/27 03:05:15;;;;;;;;;;;;;;;-144.99;86.14;52558.16;5046903;28;19925;-69
2023/02/27 03:07:43;;;;;;;;;;;;;;;-144.99;85.76;52560.19;5045249;28;20334;-67
2023/02/27 03:10:13;;;;;;;;;;;;;;;-144.99;86.23;52562.25;5045158;28;19974;-68
2023/02/27 03:12:41;;;;;;;;;;;;;;;-144.99;87.40;52586.69;5043375;28;19968;-69
2023/02/27 03:15:12;;;;;;;;;;;;;;;-144.99;87.91;52586.69;5050211;28;19975;-65
2023/02/27 03:17:43;;;;;;;;;;;;;;;-144.99;88.12;52539.81;5050081;28;20462;-66
2023/02/27 03:20:12;;;;;;;;;;;;;;;-144.99;88.79;52570.38;5046386;28;19928;-65
2023/02/27 03:22:40;;;;;;;;;;;;;;;-144.99;89.11;52554.09;5046719;28;19967;-66
2023/02/27 03:25:09;;;;;;;;;;;;;;;-144.99;89.50;52582.63;5044934;28;19932;-65
2023/02/27 03:27:40;;;;;;;;;;;;;;;-144.99;89.52;52580.59;5046010;28;19983;-65
2023/02/27 03:30:09;;;;;;;;;;;;;;;-144.99;89.62;52570.38;5045570;28;20027;-64
2023/02/27 03:32:38;;;;;;;;;;;;;;;-144.99;89.90;52578.53;5043967;28;19968;-65
2023/02/27 03:35:06;;;;;;;;;;;;;;;-144.99;89.91;52554.09;5046187;28;20409;-65
2023/02/27 03:37:38;;;;;;;;;;;;;;;-144.99;90.34;52594.84;5041489;28;20437;-64
2023/02/27 03:40:09;;;;;;;;;;;;;;;-144.99;90.33;52578.53;5045773;28;20041;-63
2023/02/27 03:42:39;;;;;;;;;;;;;;;-144.99;90.26;52588.75;5044419;28;19925;-63
2023/02/27 03:45:06;;;;;;;;;;;;;;;-144.99;90.30;52533.69;5040503;28;19940;-70
2023/02/27 03:47:33;;;;;;;;;;;;;;;-144.99;90.45;52590.78;5044339;28;20370;-69
2023/02/27 03:49:59;;;;;;;;;;;;;;;-144.99;90.49;52574.47;5039861;28;19995;-69
2023/02/27 03:52:28;;;;;;;;;;;;;;;-144.99;90.35;52590.78;5042294;28;19955;-69
2023/02/27 03:54:56;;;;;;;;;;;;;;;-144.99;90.90;52582.63;5038708;28;20031;-68
2023/02/27 03:57:22;;;;;;;;;;;;;;;-144.99;91.28;52586.69;5044023;28;20695;-68
2023/02/27 03:59:50;;;;;;;;;;;;;;;-144.99;91.44;52578.53;5039355;28;20155;-68
2023/02/27 04:02:17;;;;;;;;;;;;;;;-144.99;91.30;52605.03;5045630;28;19929;-70
2023/02/27 04:04:43;;;;;;;;;;;;;;;-144.99;91.26;52525.56;5051737;28;19925;-71
2023/02/27 04:07:23;;;;;;;;;;;;;;;-144.99;91.09;52556.13;5046640;28;19925;-70
2023/02/27 04:09:56;;;;;;;;;;;;;;;-144.99;90.94;52574.47;5046238;28;19928;-70
2023/02/27 04:12:37;;;;;;;;;;;;;;;-144.99;91.21;52588.75;5042534;28;20545;-74
2023/02/27 04:15:11;;;;;;;;;;;;;;;-144.99;88.88;52529.63;5038109;28;19947;-75
2023/02/27 04:17:41;;;;;;;;;;;;;;;-144.99;88.55;52554.09;5046333;28;20412;-75
2023/02/27 04:20:23;;;;;;;;;;;;;;;-144.99;88.47;52578.53;5041286;28;20363;-74
2023/02/27 04:22:51;;;;;;;;;;;;;;;-144.99;88.54;52539.81;5041800;28;19971;-74
2023/02/27 04:25:24;;;;;;;;;;;;;;;-144.99;88.63;52541.84;5037315;28;20352;-73
2023/02/27 04:27:57;;;;;;;;;;;;;;;-144.99;88.32;52556.13;5044929;28;19933;-73
2023/02/27 04:30:28;;;;;;;;;;;;;;;-144.99;88.56;52578.53;5044642;28;20117;-74
2023/02/27 04:32:58;;;;;;;;;;;;;;;-144.99;90.07;52529.63;5040498;28;19933;-73
2023/02/27 04:35:29;;;;;;;;;;;;;;;-144.99;91.39;52582.63;5045189;28;20023;-72
2023/02/27 04:37:59;;;;;;;;;;;;;;;-144.99;90.83;52590.78;5057833;28;19961;-73
2023/02/27 04:40:28;;;;;;;;;;;;;;;-144.99;89.61;52600.97;5055279;28;20006;-73
2023/02/27 04:42:55;;;;;;;;;;;;;;;-144.99;89.23;52627.47;5048725;28;19998;-73
2023/02/27 04:45:24;;;;;;;;;;;;;;;-144.99;90.39;52586.69;5042863;28;19971;-73
2023/02/27 04:47:56;;;;;;;;;;;;;;;-144.99;91.62;52570.38;5042206;28;19970;-73
2023/02/27 04:50:25;;;;;;;;;;;;;;;-144.99;92.05;52586.69;5045229;28;20158;-73
2023/02/27 04:52:55;;;;;;;;;;;;;;;-144.99;92.21;52566.31;5044151;28;19924;-73
2023/02/27 04:55:24;;;;;;;;;;;;;;;-144.99;91.99;52574.47;5041607;28;20026;-75
2023/02/27 04:57:53;;;;;;;;;;;;;;;-144.99;91.83;52545.94;5036860;28;20031;-74
2023/02/27 05:00:21;;;;;;;;;;;;;;;-144.99;91.93;52578.53;5046932;28;20471;-71
2023/02/27 05:02:51;;;;;;;;;;;;;;;-144.99;92.08;52582.63;5045946;28;19936;-72
2023/02/27 05:05:20;;;;;;;;;;;;;;;-144.99;92.23;52550.00;5040577;28;20374;-72
2023/02/27 05:07:49;;;;;;;;;;;;;;;-144.99;92.44;52570.38;5044259;28;20417;-72
2023/02/27 05:10:20;;;;;;;;;;;;;;;-144.99;92.78;52558.16;5044878;28;19994;-72
2023/02/27 05:12:50;;;;;;;;;;;;;;;-144.99;92.74;52562.25;5045985;28;19983;-72
2023/02/27 05:15:18;;;;;;;;;;;;;;;-144.99;93.00;52568.34;5049583;28;19925;-69
2023/02/27 05:17:47;;;;;;;;;;;;;;;-144.99;93.01;52568.34;5044857;28;19936;-64
2023/02/27 05:20:14;;;;;;;;;;;;;;;-144.99;93.16;52574.47;5049915;28;20386;-65
2023/02/27 05:22:46;;;;;;;;;;;;;;;-144.99;93.60;52570.38;5046247;28;19930;-64
2023/02/27 05:25:15;;;;;;;;;;;;;;;-144.99;93.67;52625.44;5049649;28;19928;-77
2023/02/27 05:27:45;;;;;;;;;;;;;;;-144.99;93.77;52562.25;5051127;28;20001;-70
2023/02/27 05:30:17;;;;;;;;;;;;;;;-144.99;94.27;52574.47;5050814;28;20319;-70
2023/02/27 05:32:48;;;;;;;;;;;;;;;-144.99;95.58;52558.16;5052681;28;19924;-70
2023/02/27 05:35:19;;;;;;;;;;;;;;;-144.99;96.01;52554.09;5051075;28;20121;-71
2023/02/27 05:37:51;;;;;;;;;;;;;;;-144.99;96.58;52545.94;5052522;28;20024;-71
2023/02/27 05:40:20;;;;;;;;;;;;;;;-144.99;97.10;52554.09;5055276;28;19924;-70
2023/02/27 05:42:50;;;;;;;;;;;;;;;-144.99;97.43;52550.00;5050743;28;19986;-70
2023/02/27 05:45:19;;;;;;;;;;;;;;;-144.99;97.55;52570.38;5050621;28;20270;-70
2023/02/27 05:47:49;;;;;;;;;;;;;;;-144.99;98.02;52558.16;5051720;28;19936;-70
2023/02/27 05:50:17;;;;;;;;;;;;;;;-144.99;98.23;52590.78;5050322;28;19929;-70
2023/02/27 05:52:45;;;;;;;;;;;;;;;-144.99;98.71;52554.09;5043637;28;19929;-70
2023/02/27 05:55:17;;;;;;;;;;;;;;;-144.99;98.92;52533.69;5046584;28;19924;-70
2023/02/27 05:57:45;;;;;;;;;;;;;;;-144.99;99.04;52541.84;5049384;28;20333;-63
2023/02/27 06:00:14;;;;;;;;;;;;;;;-144.99;98.97;52598.94;5049695;28;19953;-70
2023/02/27 06:02:41;;;;;;;;;;;;;;;-144.99;99.09;52537.78;5040599;28;20426;-71
2023/02/27 06:05:08;;;;;;;;;;;;;;;-144.99;99.20;52529.63;5045659;28;19990;-71
2023/02/27 06:07:34;;;;;;;;;;;;;;;-144.99;99.21;52578.53;5046787;28;20385;-71
2023/02/27 06:10:01;;;;;;;;;;;;;;;-144.99;99.29;52558.16;5048783;28;19940;-70
2023/02/27 06:12:29;;;;;;;;;;;;;;;-144.99;99.29;52566.31;5046657;28;19936;-70
2023/02/27 06:14:55;;;;;;;;;;;;;;;-144.99;99.27;52594.84;5050107;28;20036;-72
2023/02/27 06:17:22;;;;;;;;;;;;;;;-144.99;99.18;52539.81;4356172;28;10000730;-72
2023/02/27 06:19:48;;;;;;;;;;;;;;;-144.99;99.12;52545.94;5048441;28;19956;-71
2023/02/27 06:22:15;;;;;;;;;;;;;;;-144.99;98.86;52560.19;5052266;28;20463;-71
2023/02/27 06:24:41;;;;;;;;;;;;;;;-144.99;98.40;52541.84;5042568;28;19979;-72
2023/02/27 06:27:08;;;;;;;;;;;;;;;-144.99;98.39;52564.28;5040436;28;19929;-71
2023/02/27 06:29:36;;;;;;;;;;;;;;;-144.99;98.02;52533.69;5043551;28;20385;-71
2023/02/27 06:32:02;;;;;;;;;;;;;;;-144.99;98.23;52550.00;5047507;28;20017;-71
2023/02/27 06:34:29;;;;;;;;;;;;;;;-144.99;98.20;52590.78;5043907;28;19990;-71
2023/02/27 06:36:55;;;;;;;;;;;;;;;-144.99;98.16;52545.94;5044098;28;20039;-71
2023/02/27 06:39:22;;;;;;;;;;;;;;;-144.99;98.14;52578.53;5045628;28;19967;-72
2023/02/27 06:41:48;;;;;;;;;;;;;;;-144.99;98.19;52505.16;5048042;28;20288;-72
2023/02/27 06:44:15;;;;;;;;;;;;;;;-144.99;98.12;52558.16;5044165;28;20372;-71
2023/02/27 06:46:43;;;;;;;;;;;;;;;-144.99;97.95;52537.78;5045887;28;20332;-71
2023/02/27 06:49:09;;;;;;;;;;;;;;;-144.99;97.61;52525.56;5047324;28;20084;-71
2023/02/27 06:51:36;;;;;;;;;;;;;;;-144.99;99.72;52533.69;5044429;28;20011;-72
2023/02/27 06:54:02;;;;;;;;;;;;;;;-144.99;100.00;52552.03;5044935;28;19929;-71
2023/02/27 06:56:29;;;;;;;;;;;;;;;-144.99;100.00;52566.31;5047610;28;19995;-71
2023/02/27 06:58:55;;;;;;;;;;;;;;;-144.99;100.00;52529.63;5047298;28;19932;-71
2023/02/27 07:01:23;;;;;;;;;;;;;;;-144.99;100.00;52541.84;5047683;28;19933;-72
2023/02/27 07:03:51;;;;;;;;;;;;;;;-144.99;100.00;52552.03;5046087;28;19937;-71
2023/02/27 07:06:18;;;;;;;;;;;;;;;-144.99;100.00;52550.00;5043816;28;20058;-72
2023/02/27 07:08:44;;;;;;;;;;;;;;;-144.99;100.00;52525.56;5050551;28;19960;-72
2023/02/27 07:11:11;;;;;;;;;;;;;;;-144.99;100.00;52521.47;5059650;28;19929;-72
2023/02/27 07:13:37;;;;;;;;;;;;;;;-144.99;100.00;52529.63;5052940;28;20305;-71
2023/02/27 07:16:04;;;;;;;;;;;;;;;-144.99;100.00;52533.69;5052477;28;20032;-72
2023/02/27 07:18:31;;;;;;;;;;;;;;;-144.99;100.00;52558.16;5050773;28;19929;-72
2023/02/27 07:20:59;;;;;;;;;;;;;;;-144.99;99.64;52537.78;5057538;28;19928;-71
2023/02/27 07:23:25;;;;;;;;;;;;;;;-144.99;99.48;52537.78;5040339;28;19967;-71
2023/02/27 07:25:52;;;;;;;;;;;;;;;-144.99;99.38;52523.50;5045558;28;19968;-72
2023/02/27 07:28:18;;;;;;;;;;;;;;;-144.99;98.87;52513.31;5040732;28;19969;-73
2023/02/27 07:30:45;;;;;;;;;;;;;;;-144.99;98.55;52519.44;5047505;28;19929;-73
2023/02/27 07:33:11;;;;;;;;;;;;;;;-144.99;98.15;52480.72;5039325;28;19929;-73
2023/02/27 07:35:38;;;;;;;;;;;;;;;-144.99;97.78;52545.94;5045606;28;20316;-74
2023/02/27 07:38:06;;;;;;;;;;;;;;;-144.99;96.66;52517.41;5040773;28;20019;-74
2023/02/27 07:40:32;;;;;;;;;;;;;;;-144.99;95.08;52501.09;5045326;28;19933;-74
2023/02/27 07:42:59;;;;;;;;;;;;;;;-144.99;94.78;52547.97;5045049;28;19961;-75
2023/02/27 07:45:25;;;;;;;;;;;;;;;-144.99;93.57;52554.09;5046896;28;19933;-75
2023/02/27 07:47:58;;;;;;;;;;;;;;;-144.99;93.42;52513.31;4913106;28;10000363;-75
2023/02/27 07:50:25;;;;;;;;;;;;;;;-144.99;93.24;52521.47;5054765;28;19928;-78
2023/02/27 07:52:51;;;;;;;;;;;;;;;-144.99;92.56;52541.84;5054475;28;20002;-75
2023/02/27 07:55:19;;;;;;;;;;;;;;;-144.99;92.30;52525.56;5062581;28;19978;-76
2023/02/27 07:57:45;;;;;;;;;;;;;;;-144.99;91.52;52505.16;5047338;28;19929;-74
2023/02/27 08:00:12;;;;;;;;;;;;;;;-144.99;90.78;52525.56;5043937;28;19974;-75
2023/02/27 08:02:39;;;;;;;;;;;;;;;-144.99;89.90;52486.81;5049700;28;19932;-74
2023/02/27 08:05:06;;;;;;;;;;;;;;;-144.99;89.60;52488.84;5056937;28;19991;-78
2023/02/27 08:07:33;;;;;;;;;;;;;;;-144.99;88.57;52492.94;5055396;28;19959;-80
2023/02/27 08:09:59;;;;;;;;;;;;;;;-144.99;87.90;52439.94;5042942;28;20275;-77
2023/02/27 08:12:27;;;;;;;;;;;;;;;-144.99;87.07;52521.47;5037353;28;20361;-77
2023/02/27 08:14:54;;;;;;;;;;;;;;;-144.99;86.80;52511.28;5047705;28;20229;-75
2023/02/27 08:17:20;;;;;;;;;;;;;;;-144.99;86.35;52521.47;5045575;28;19971;-76
2023/02/27 08:19:47;;;;;;;;;;;;;;;-144.99;85.85;52499.06;5048578;28;20318;-76
2023/02/27 08:22:13;;;;;;;;;;;;;;;-144.99;85.29;52456.25;5052352;28;20376;-77
2023/02/27 08:24:40;;;;;;;;;;;;;;;-144.99;84.49;52480.72;5039853;28;19990;-77
2023/02/27 08:27:08;;;;;;;;;;;;;;;-144.99;83.34;52480.72;5051378;28;19960;-78
2023/02/27 08:29:36;;;;;;;;;;;;;;;-144.99;82.58;52497.00;5047021;28;19955;-78
2023/02/27 08:32:04;;;;;;;;;;;;;;;-144.99;82.09;52488.84;5046278;28;19956;-77
2023/02/27 08:34:30;;;;;;;;;;;;;;;-144.99;80.45;52435.88;5039978;28;19964;-78
2023/02/27 08:36:57;;;;;;;;;;;;;;;-144.99;80.21;52382.88;5043583;28;20398;-78
2023/02/27 08:39:24;;;;;;;;;;;;;;;-144.99;79.79;52503.13;5038299;28;19932;-78
2023/02/27 08:41:51;;;;;;;;;;;;;;;-144.99;79.51;52439.94;5046256;28;20389;-77
2023/02/27 08:44:18;;;;;;;;;;;;;;;-144.99;78.90;52423.63;5045929;28;20043;-78
2023/02/27 08:46:45;;;;;;;;;;;;;;;-144.99;78.69;52423.63;5045163;28;19929;-77
2023/02/27 08:49:12;;;;;;;;;;;;;;;-144.99;77.92;52464.41;5045525;28;19933;-79
2023/02/27 08:51:39;;;;;;;;;;;;;;;-144.99;77.78;52476.63;5052550;28;19929;-80
2023/02/27 08:54:05;;;;;;;;;;;;;;;-144.99;77.25;52448.09;5053188;28;19979;-79
2023/02/27 08:56:33;;;;;;;;;;;;;;;-144.99;76.56;52460.31;5039908;28;20458;-78
2023/02/27 08:59:00;;;;;;;;;;;;;;;-144.99;76.23;52482.75;5037216;28;20011;-77
2023/02/27 09:01:33;;;;;;;;;;;;;;;-144.99;75.83;52460.31;5047251;28;20005;-77
2023/02/27 09:04:01;;;;;;;;;;;;;;;-144.99;75.60;52456.25;5044185;28;20294;-77
2023/02/27 09:06:27;;;;;;;;;;;;;;;-144.99;75.67;52456.25;5045884;28;20436;-76
2023/02/27 09:08:54;;;;;;;;;;;;;;;-144.99;74.91;52462.34;5045637;28;19951;-76
2023/02/27 09:11:20;;;;;;;;;;;;;;;-144.99;74.35;52444.03;5039395;28;19986;-76
2023/02/27 09:13:47;;;;;;;;;;;;;;;-144.99;73.55;52441.97;5039669;28;20312;-78
2023/02/27 09:16:13;;;;;;;;;;;;;;;-144.99;73.06;52370.63;5038917;28;19966;-80
2023/02/27 09:18:40;;;;;;;;;;;;;;;-144.99;72.83;52427.72;5045620;28;20035;-79
2023/02/27 09:21:08;;;;;;;;;;;;;;;-144.99;72.58;52437.91;5037347;28;19990;-79
2023/02/27 09:23:35;;;;;;;;;;;;;;;-144.99;72.81;52403.25;5039708;28;20322;-80
2023/02/27 09:26:01;;;;;;;;;;;;;;;-144.99;71.79;52417.53;5044241;28;19962;-78
2023/02/27 09:28:28;;;;;;;;;;;;;;;-144.99;71.85;52423.63;5044564;28;20084;-79
2023/02/27 09:30:54;;;;;;;;;;;;;;;-144.99;71.16;52384.91;5045193;28;19941;-80
2023/02/27 09:33:21;;;;;;;;;;;;;;;-144.99;70.91;52407.31;5040946;28;19925;-78
2023/02/27 09:35:47;;;;;;;;;;;;;;;-144.99;70.63;52419.56;5046073;28;20421;-78
2023/02/27 09:38:15;;;;;;;;;;;;;;;-144.99;70.33;52386.94;5045762;28;20013;-80
2023/02/27 09:40:43;;;;;;;;;;;;;;;-144.99;70.05;52395.09;5050077;28;19929;-82
2023/02/27 09:43:14;;;;;;;;;;;;;;;-144.99;69.03;52354.34;5062790;28;20395;-82
2023/02/27 09:45:41;;;;;;;;;;;;;;;-144.99;68.26;52386.94;5044287;28;19951;-78
2023/02/27 09:48:13;;;;;;;;;;;;;;;-144.99;67.91;52427.72;5039538;28;19960;-81
2023/02/27 09:50:40;;;;;;;;;;;;;;;-144.99;67.62;52313.56;5040159;28;20613;-80
2023/02/27 09:53:11;;;;;;;;;;;;;;;-144.99;66.98;52382.88;5044670;28;19976;-79
2023/02/27 09:55:40;;;;;;;;;;;;;;;-144.99;66.38;52350.25;5043174;28;20349;-79
2023/02/27 09:58:10;;;;;;;;;;;;;;;-144.99;65.43;52342.09;5046901;28;20366;-81
2023/02/27 10:00:47;;;;;;;;;;;;;;;-144.99;65.11;52321.72;5050531;28;19972;-78
2023/02/27 10:03:20;;;;;;;;;;;;;;;-144.99;64.17;52329.88;5058816;28;19979;-79
2023/02/27 10:05:50;;;;;;;;;;;;;;;-144.99;63.66;52293.19;5044434;28;19924;-79
2023/02/27 10:08:20;;;;;;;;;;;;;;;-144.99;62.75;52299.31;5043969;28;19937;-83
2023/02/27 10:10:53;;;;;;;;;;;;;;;-144.99;62.38;52276.88;5048073;28;19925;-79
2023/02/27 10:13:29;;;;;;;;;;;;;;;-144.99;62.11;52336.00;5048936;28;19925;-80
2023/02/27 10:15:57;;;;;;;;;;;;;;;-144.99;62.63;52305.41;5049776;28;19924;-79
2023/02/27 10:18:27;;;;;;;;;;;;;;;-144.99;62.54;52325.81;5041518;28;19975;-78
2023/02/27 10:20:55;;;;;;;;;;;;;;;-144.99;63.19;52338.03;5046852;28;19971;-79
2023/02/27 10:23:28;;;;;;;;;;;;;;;-144.99;63.64;52366.56;5047216;28;19991;-79
2023/02/27 10:25:56;;;;;;;;;;;;;;;-144.99;64.19;52323.75;5041238;28;19960;-80
2023/02/27 10:28:23;;;;;;;;;;;;;;;-144.99;64.71;52350.25;5041395;28;19980;-80
2023/02/27 10:30:51;;;;;;;;;;;;;;;-144.99;64.94;52340.06;5044423;28;20420;-79
2023/02/27 10:33:22;;;;;;;;;;;;;;;-144.99;65.39;52395.09;5066314;28;19963;-82
2023/02/27 10:35:50;;;;;;;;;;;;;;;-144.99;65.32;52395.09;5065310;28;20328;-79
2023/02/27 10:38:19;;;;;;;;;;;;;;;-144.99;65.60;52386.94;5049793;28;19964;-79
2023/02/27 10:40:46;;;;;;;;;;;;;;;-144.99;66.19;52431.78;5043566;28;19942;-78
2023/02/27 10:43:17;;;;;;;;;;;;;;;-144.99;64.99;52382.88;5043429;28;20422;-79
2023/02/27 10:45:43;;;;;;;;;;;;;;;-144.99;64.63;52419.56;5048322;28;20405;-79
2023/02/27 10:48:10;;;;;;;;;;;;;;;-144.99;64.77;52391.03;5041414;28;19939;-78
2023/02/27 10:50:39;;;;;;;;;;;;;;;-144.99;64.56;52399.19;5048802;28;19968;-79
2023/02/27 10:53:07;;;;;;;;;;;;;;;-144.99;64.99;52395.09;5040914;28;19943;-80
2023/02/27 10:55:35;;;;;;;;;;;;;;;-144.99;64.46;52356.38;5048547;28;19990;-79
2023/02/27 10:58:02;;;;;;;;;;;;;;;-144.99;64.78;52395.09;5048872;28;19928;-79
2023/02/27 11:00:33;;;;;;;;;;;;;;;-144.99;64.66;52370.63;5041677;28;19925;-79
2023/02/27 11:03:00;;;;;;;;;;;;;;;-144.99;64.74;52372.69;5043914;28;19936;-79
2023/02/27 11:05:28;;;;;;;;;;;;;;;-144.99;64.80;52395.09;5039066;28;19959;-79
2023/02/27 11:07:55;;;;;;;;;;;;;;;-144.99;64.39;52366.56;5047220;28;20109;-80
2023/02/27 11:10:24;;;;;;;;;;;;;;;-144.99;63.83;52350.25;5041405;28;20634;-79
2023/02/27 11:12:59;;;;;;;;;;;;;;;-144.99;62.95;52342.09;5042275;28;19995;-79
2023/02/27 11:15:26;;;;;;;;;;;;;;;-144.99;62.09;52329.88;5047658;28;20051;-79
2023/02/27 11:17:55;;;;;;;;;;;;;;;-144.99;62.83;52403.25;5046856;28;19961;-78
2023/02/27 11:20:34;;;;;;;;;;;;;;;-144.99;63.31;52423.63;5049598;28;20332;-79
2023/02/27 11:23:07;;;;;;;;;;;;;;;-144.99;63.20;52419.56;5045325;28;19943;-79
2023/02/27 11:25:33;;;;;;;;;;;;;;;-144.99;63.47;52448.09;5043478;28;20383;-78
2023/02/27 11:28:18;;;;;;;;;;;;;;;-144.99;63.66;52421.59;5043786;28;20019;-80
2023/02/27 11:30:44;;;;;;;;;;;;;;;-144.99;63.92;52448.09;5035307;28;20245;-79
2023/02/27 11:33:18;;;;;;;;;;;;;;;-144.99;64.28;52456.25;5048093;28;20332;-79
2023/02/27 11:35:50;;;;;;;;;;;;;;;-144.99;64.45;52468.47;5037931;28;20162;-79
2023/02/27 11:38:19;;;;;;;;;;;;;;;-144.99;65.34;52439.94;5046174;28;19939;-79
2023/02/27 11:40:49;;;;;;;;;;;;;;;-144.99;65.36;52460.31;5047284;28;20004;-78
2023/02/27 11:43:17;;;;;;;;;;;;;;;-144.99;65.43;52427.72;5041158;28;20011;-79
2023/02/27 11:45:49;;;;;;;;;;;;;;;-144.99;65.66;52435.88;5039824;28;20043;-79
2023/02/27 11:48:20;;;;;;;;;;;;;;;-144.99;66.13;52435.88;5039766;28;20417;-79
2023/02/27 11:50:52;;;;;;;;;;;;;;;-144.99;66.42;52490.91;5048345;28;19955;-79
2023/02/27 11:53:42;;;;;;;;;;;;;;;-144.99;66.82;52468.47;5033838;28;19944;-78
2023/02/27 11:56:11;;;;;;;;;;;;;;;-144.99;67.21;52492.94;5026517;28;19947;-79
2023/02/27 11:58:41;;;;;;;;;;;;;;;-144.99;67.52;52472.56;5044245;28;20237;-79
2023/02/27 12:01:12;;;;;;;;;;;;;;;-144.99;67.55;52460.31;5045821;28;19968;-79
2023/02/27 12:03:45;;;;;;;;;;;;;;;-144.99;67.65;52503.13;5044105;28;20502;-79
2023/02/27 12:06:17;;;;;;;;;;;;;;;-144.99;67.76;52497.00;5046370;28;19929;-78
2023/02/27 12:08:46;;;;;;;;;;;;;;;-144.99;67.43;52472.56;5046800;28;20326;-80
2023/02/27 12:11:15;;;;;;;;;;;;;;;-144.99;67.52;52439.94;5060000;28;19961;-79
2023/02/27 12:13:46;;;;;;;;;;;;;;;-144.99;67.23;52431.78;5050460;28;20428;-79
2023/02/27 12:16:17;;;;;;;;;;;;;;;-144.99;67.38;52444.03;5043174;28;19968;-79
2023/02/27 12:18:49;;;;;;;;;;;;;;;-144.99;67.59;52460.31;5047433;28;20156;-79
2023/02/27 12:21:18;;;;;;;;;;;;;;;-144.99;67.15;52472.56;5044755;28;20019;-79
2023/02/27 12:23:47;;;;;;;;;;;;;;;-144.99;66.44;52407.31;5043477;28;20013;-79
2023/02/27 12:26:17;;;;;;;;;;;;;;;-144.99;66.06;52444.03;5044276;28;20454;-81
2023/02/27 12:28:49;;;;;;;;;;;;;;;-144.99;65.41;52403.25;5035388;28;19937;-79
2023/02/27 12:31:31;;;;;;;;;;;;;;;-144.99;64.53;52403.25;5031730;28;20014;-79
2023/02/27 12:34:01;;;;;;;;;;;;;;;-144.99;63.93;52374.72;5042057;28;19933;-80